Time;durP1;ratioP1;P1;durP2;ratioP2;P2;SDS_P1;SDS_P2;PMS_P1;PMS_P2;Temp;Humidity;BMP_temperature;BMP_pressure;BME280_temperature;BME280_humidity;BME280_pressure;Samples;Min_cycle;Max_cycle;Signal;HPM_P1;HPM_P2
2022/10/29 00:00:25;;;;;;;25.90;7.53;;;14.80;90.70;;;;;;5017227;28;20184;-90
2022/10/29 00:02:51;;;;;;;28.00;9.35;;;14.80;90.70;;;;;;5016766;28;20226;-90
2022/10/29 00:05:16;;;;;;;27.27;8.13;;;14.80;90.80;;;;;;5017111;28;20176;-90
2022/10/29 00:07:42;;;;;;;27.27;7.80;;;14.80;90.90;;;;;;5017219;28;20176;-90
2022/10/29 00:10:08;;;;;;;32.38;8.85;;;14.80;90.80;;;;;;5017424;28;20173;-91
2022/10/29 00:12:34;;;;;;;27.70;8.13;;;14.70;90.80;;;;;;5016683;28;20223;-91
2022/10/29 00:14:59;;;;;;;28.67;7.78;;;14.70;90.80;;;;;;5034760;28;20179;-91
2022/10/29 00:17:25;;;;;;;23.23;7.80;;;14.70;90.90;;;;;;5016823;28;20176;-90
2022/10/29 00:19:50;;;;;;;25.95;7.43;;;14.60;90.90;;;;;;5017185;28;20230;-90
2022/10/29 00:22:16;;;;;;;35.03;8.05;;;14.60;90.80;;;;;;5017326;28;20252;-91
2022/10/29 00:24:41;;;;;;;27.40;8.65;;;14.50;91.00;;;;;;5017117;28;20192;-91
2022/10/29 00:27:07;;;;;;;22.45;7.90;;;14.50;91.00;;;;;;5016601;28;20176;-90
2022/10/29 00:29:32;;;;;;;30.98;8.32;;;14.40;91.10;;;;;;5016420;28;20179;-91
2022/10/29 00:31:58;;;;;;;30.40;8.48;;;14.40;91.10;;;;;;5016551;28;20203;-90
2022/10/29 00:34:23;;;;;;;29.00;8.18;;;14.30;91.30;;;;;;5034574;28;20200;-90
2022/10/29 00:36:49;;;;;;;33.05;7.43;;;14.30;91.50;;;;;;5017310;28;20574;-91
2022/10/29 00:39:15;;;;;;;25.83;7.45;;;14.30;91.60;;;;;;5017223;28;20651;-90
2022/10/29 00:41:41;;;;;;;31.17;7.70;;;14.30;91.60;;;;;;5016730;28;20212;-90
2022/10/29 00:44:13;;;;;;;29.77;8.43;;;14.20;91.60;;;;;;5016705;28;20208;-90
2022/10/29 00:46:42;;;;;;;23.23;8.50;;;14.20;91.70;;;;;;5016728;28;20177;-90
2022/10/29 00:49:08;;;;;;;30.80;8.50;;;14.20;91.70;;;;;;5017330;28;20172;-90
2022/10/29 00:51:34;;;;;;;27.63;8.55;;;14.20;91.70;;;;;;5016776;28;20200;-91
2022/10/29 00:54:07;;;;;;;27.10;8.23;;;14.10;91.80;;;;;;5018550;28;20181;-90
2022/10/29 00:56:36;;;;;;;36.22;8.07;;;14.00;91.90;;;;;;5020219;28;20169;-90
2022/10/29 00:59:03;;;;;;;33.47;9.65;;;14.00;91.90;;;;;;5020149;28;20181;-90
2022/10/29 01:01:29;;;;;;;31.48;8.77;;;14.00;92.20;;;;;;5020740;28;20200;-90
2022/10/29 01:03:55;;;;;;;34.10;8.47;;;13.90;92.30;;;;;;5020149;28;20211;-90
2022/10/29 01:06:23;;;;;;;38.47;8.37;;;13.90;92.20;;;;;;5020113;28;20173;-91
2022/10/29 01:08:48;;;;;;;29.02;7.75;;;13.90;92.30;;;;;;5020322;28;20181;-91
2022/10/29 01:11:53;;;;;;;31.67;8.32;;;13.90;92.20;;;;;;5003806;28;20323;-90
2022/10/29 01:14:43;;;;;;;24.10;6.97;;;13.90;92.10;;;;;;5019887;28;20189;-91
2022/10/29 01:17:25;;;;;;;21.98;7.78;;;13.80;92.00;;;;;;5037657;28;20157;-90
2022/10/29 01:20:18;;;;;;;28.80;7.10;;;13.80;92.00;;;;;;5020935;28;20535;-90
2022/10/29 01:23:15;;;;;;;29.23;8.48;;;13.60;92.00;;;;;;5019630;28;20295;-90
2022/10/29 01:26:29;;;;;;;35.00;8.75;;;13.60;92.00;;;;;;5019463;28;20179;-90
2022/10/29 01:29:26;;;;;;;25.60;8.07;;;13.60;92.00;;;;;;5019816;28;20178;-90
2022/10/29 01:32:09;;;;;;;33.47;8.00;;;13.60;92.10;;;;;;5019464;28;20592;-90
2022/10/29 01:34:53;;;;;;;36.05;8.07;;;13.50;92.10;;;;;;5019158;28;20200;-90
2022/10/29 01:37:31;;;;;;;30.92;8.35;;;13.60;92.10;;;;;;5019300;28;20188;-90
2022/10/29 01:40:24;;;;;;;29.48;8.63;;;13.60;92.10;;;;;;5037175;28;20302;-91
2022/10/29 01:43:16;;;;;;;27.92;8.60;;;13.50;91.90;;;;;;5018855;28;20338;-90
2022/10/29 01:45:47;;;;;;;31.63;8.97;;;13.30;92.00;;;;;;5010912;28;20229;-91
2022/10/29 01:48:17;;;;;;;33.08;8.75;;;13.30;92.30;;;;;;5036761;28;20157;-91
2022/10/29 01:50:48;;;;;;;20.27;7.33;;;13.30;92.40;;;;;;5019268;28;20173;-91
2022/10/29 01:53:15;;;;;;;24.80;8.07;;;13.30;92.40;;;;;;5019122;28;20181;-90
2022/10/29 01:55:41;;;;;;;32.05;8.27;;;13.20;92.20;;;;;;5018977;28;20315;-90
2022/10/29 01:58:09;;;;;;;30.00;8.63;;;13.30;92.40;;;;;;5018571;28;20607;-90
2022/10/29 02:00:47;;;;;;;23.33;8.35;;;13.20;92.40;;;;;;5018654;28;20173;-90
2022/10/29 02:03:33;;;;;;;35.63;9.40;;;13.30;92.40;;;;;;5018765;28;20172;-90
2022/10/29 02:06:35;;;;;;;30.42;8.70;;;13.30;92.50;;;;;;5018138;28;20176;-90
2022/10/29 02:09:22;;;;;;;25.20;9.13;;;13.30;92.50;;;;;;5018844;28;20176;-90
2022/10/29 02:11:56;;;;;;;25.53;8.47;;;13.30;92.60;;;;;;5019212;28;20196;-90
2022/10/29 02:14:34;;;;;;;35.00;10.03;;;13.30;92.70;;;;;;5018955;28;20180;-90
2022/10/29 02:17:01;;;;;;;32.53;8.70;;;13.20;92.80;;;;;;5018428;28;20181;-90
2022/10/29 02:19:31;;;;;;;40.90;10.20;;;13.20;92.90;;;;;;5018889;28;20264;-90
2022/10/29 02:21:57;;;;;;;34.73;9.60;;;13.20;93.00;;;;;;5018433;28;20219;-91
2022/10/29 02:24:23;;;;;;;30.00;9.70;;;13.20;93.00;;;;;;5018527;28;20173;-90
2022/10/29 02:26:49;;;;;;;39.87;10.37;;;13.20;93.10;;;;;;5018233;28;20196;-91
2022/10/29 02:29:15;;;;;;;33.03;8.87;;;13.20;93.10;;;;;;5019121;28;20181;-91
2022/10/29 02:31:40;;;;;;;36.57;10.13;;;13.10;93.10;;;;;;5018219;28;20192;-91
2022/10/29 02:34:06;;;;;;;30.43;9.10;;;13.10;93.20;;;;;;5018296;28;20529;-91
2022/10/29 02:36:31;;;;;;;30.60;10.27;;;13.00;93.20;;;;;;5018072;28;20642;-91
2022/10/29 02:38:57;;;;;;;35.53;9.83;;;13.00;93.30;;;;;;5018109;28;20180;-91
2022/10/29 02:41:23;;;;;;;30.67;9.93;;;13.00;93.30;;;;;;5018202;28;20259;-91
2022/10/29 02:43:48;;;;;;;37.03;10.40;;;13.00;93.30;;;;;;5036331;28;20169;-90
2022/10/29 02:46:19;;;;;;;30.97;9.33;;;12.90;93.30;;;;;;5018070;28;20656;-91
2022/10/29 02:48:45;;;;;;;36.43;10.10;;;12.90;93.40;;;;;;5018407;28;20173;-90
2022/10/29 02:51:11;;;;;;;29.53;10.37;;;12.90;93.50;;;;;;5017850;28;20204;-90
2022/10/29 02:53:36;;;;;;;29.77;9.47;;;12.90;93.50;;;;;;5018083;28;20292;-91
2022/10/29 02:56:03;;;;;;;35.47;10.57;;;12.80;93.60;;;;;;5018124;28;20224;-90
2022/10/29 02:58:28;;;;;;;25.03;8.83;;;12.90;93.60;;;;;;5018354;28;20176;-91
2022/10/29 03:00:54;;;;;;;24.43;8.83;;;12.80;93.50;;;;;;5018090;28;20238;-89
2022/10/29 03:03:19;;;;;;;16.63;7.93;;;12.80;93.50;;;;;;5017505;28;20179;-91
2022/10/29 03:05:45;;;;;;;16.93;7.00;;;12.80;93.50;;;;;;5017614;28;20172;-90
2022/10/29 03:08:11;;;;;;;23.10;7.17;;;12.80;93.50;;;;;;5017674;28;20207;-91
2022/10/29 03:10:36;;;;;;;23.70;6.97;;;12.80;93.40;;;;;;5017632;28;20184;-91
2022/10/29 03:13:02;;;;;;;22.33;7.07;;;12.70;93.40;;;;;;5017479;28;20205;-90
2022/10/29 03:15:27;;;;;;;17.63;7.20;;;12.70;93.30;;;;;;5017525;28;20279;-90
2022/10/29 03:17:53;;;;;;;27.47;9.23;;;12.60;93.30;;;;;;5017781;28;20177;-91
2022/10/29 03:20:19;;;;;;;30.33;10.60;;;12.50;93.20;;;;;;5017289;28;20338;-91
2022/10/29 03:22:44;;;;;;;26.00;9.07;;;12.50;93.30;;;;;;5034868;28;20215;-91
2022/10/29 03:25:10;;;;;;;29.67;10.67;;;12.50;93.30;;;;;;5017116;28;20568;-91
2022/10/29 03:27:43;;;;;;;20.50;7.80;;;12.40;93.30;;;;;;5017321;28;20631;-91
2022/10/29 03:30:11;;;;;;;17.63;7.03;;;12.40;93.30;;;;;;5017848;28;20176;-92
2022/10/29 03:32:40;;;;;;;16.93;7.73;;;12.30;93.20;;;;;;5017463;28;20205;-91
2022/10/29 03:35:07;;;;;;;19.80;8.27;;;12.30;93.20;;;;;;5017770;28;20208;-91
2022/10/29 03:37:33;;;;;;;23.80;8.70;;;12.30;93.20;;;;;;5017192;28;20271;-91
2022/10/29 03:39:58;;;;;;;18.23;8.37;;;12.30;93.20;;;;;;5017693;28;20211;-91
2022/10/29 03:42:24;;;;;;;21.70;8.97;;;12.20;93.10;;;;;;5034831;28;20208;-91
2022/10/29 03:44:50;;;;;;;16.03;6.83;;;12.20;93.10;;;;;;5017794;28;20198;-91
2022/10/29 03:47:15;;;;;;;21.97;7.97;;;12.20;93.10;;;;;;5017264;28;20180;-91
2022/10/29 03:49:41;;;;;;;19.13;7.90;;;12.20;93.00;;;;;;5018039;28;20176;-91
2022/10/29 03:52:06;;;;;;;26.40;9.90;;;12.10;92.90;;;;;;5017148;28;20200;-91
2022/10/29 03:54:32;;;;;;;44.40;12.87;;;12.20;93.00;;;;;;5017224;28;20192;-91
2022/10/29 03:56:57;;;;;;;22.20;11.33;;;12.20;93.20;;;;;;5017172;28;20172;-91
2022/10/29 03:59:23;;;;;;;30.37;10.33;;;12.20;93.30;;;;;;5017498;28;20666;-91
2022/10/29 04:01:48;;;;;;;22.10;9.10;;;12.20;93.30;;;;;;5017838;28;20578;-91
2022/10/29 04:04:14;;;;;;;24.07;8.10;;;12.00;93.10;;;;;;5017295;28;20259;-91
2022/10/29 04:06:39;;;;;;;16.70;7.87;;;11.90;93.00;;;;;;5017447;28;20703;-91
2022/10/29 04:09:05;;;;;;;11.97;6.60;;;11.90;93.00;;;;;;5017607;28;20218;-91
2022/10/29 04:11:31;;;;;;;21.73;7.57;;;11.90;93.00;;;;;;5017886;28;20283;-91
2022/10/29 04:13:56;;;;;;;16.03;8.70;;;11.90;93.00;;;;;;5017600;28;20180;-91
2022/10/29 04:16:22;;;;;;;35.33;11.20;;;11.80;92.90;;;;;;5017506;28;20180;-90
2022/10/29 04:18:48;;;;;;;117.40;14.17;;;11.90;92.90;;;;;;5017264;28;20624;-91
2022/10/29 04:21:14;;;;;;;90.40;13.77;;;11.90;93.10;;;;;;5016593;28;20220;-90
2022/10/29 04:23:40;;;;;;;41.43;13.20;;;12.20;93.40;;;;;;5016844;28;20177;-90
2022/10/29 04:26:05;;;;;;;49.63;13.83;;;12.30;93.50;;;;;;5016844;28;20181;-91
2022/10/29 04:28:31;;;;;;;61.33;15.23;;;12.20;93.70;;;;;;5019716;28;20180;-91
2022/10/29 04:30:56;;;;;;;28.30;14.10;;;12.20;93.90;;;;;;5024324;28;20173;-91
2022/10/29 04:33:22;;;;;;;39.73;17.77;;;12.20;93.90;;;;;;5024031;28;20203;-91
2022/10/29 04:35:53;;;;;;;48.77;19.33;;;12.30;94.20;;;;;;5026082;28;20203;-91
2022/10/29 04:38:19;;;;;;;57.67;21.73;;;12.40;94.30;;;;;;5024564;28;20173;-91
2022/10/29 04:40:44;;;;;;;54.40;21.50;;;12.50;94.40;;;;;;5024554;28;20177;-91
2022/10/29 04:43:10;;;;;;;63.43;23.57;;;12.60;94.60;;;;;;5024031;28;20204;-91
2022/10/29 04:45:35;;;;;;;66.03;25.07;;;12.70;94.80;;;;;;5024347;28;20231;-91
2022/10/29 04:48:03;;;;;;;54.20;25.90;;;12.80;94.80;;;;;;5041080;28;20177;-91
2022/10/29 04:50:29;;;;;;;66.73;28.33;;;12.80;94.90;;;;;;5041839;28;20165;-91
2022/10/29 04:52:59;;;;;;;81.03;28.63;;;12.90;95.00;;;;;;5024356;28;20612;-91
2022/10/29 04:55:25;;;;;;;70.77;26.37;;;13.00;95.10;;;;;;5023493;28;20207;-91
2022/10/29 04:57:50;;;;;;;92.70;26.67;;;12.90;95.10;;;;;;5025445;28;20530;-91
2022/10/29 05:00:16;;;;;;;85.00;28.00;;;13.00;95.20;;;;;;5024532;28;20650;-91
2022/10/29 05:02:46;;;;;;;76.40;26.13;;;13.00;95.20;;;;;;5024192;28;20212;-91
2022/10/29 05:05:11;;;;;;;115.90;26.27;;;13.00;95.30;;;;;;5023262;28;20275;-91
2022/10/29 05:07:37;;;;;;;126.73;28.63;;;12.90;95.30;;;;;;5024214;28;20204;-91
2022/10/29 05:10:02;;;;;;;136.17;26.40;;;12.90;95.40;;;;;;5024648;28;20590;-91
2022/10/29 05:12:28;;;;;;;139.23;28.07;;;12.90;95.40;;;;;;5024238;28;20236;-91
2022/10/29 05:14:53;;;;;;;131.47;28.53;;;12.90;95.50;;;;;;5024700;28;20246;-91
2022/10/29 05:17:19;;;;;;;47.70;24.50;;;12.80;95.50;;;;;;5023426;28;20532;-91
2022/10/29 05:19:44;;;;;;;140.90;25.70;;;12.80;95.50;;;;;;5023264;28;20262;-91
2022/10/29 05:22:10;;;;;;;102.83;26.63;;;12.80;95.50;;;;;;5022654;28;20809;-90
2022/10/29 05:24:36;;;;;;;71.40;23.97;;;12.90;95.60;;;;;;5039798;28;20697;-91
2022/10/29 05:27:03;;;;;;;50.53;23.30;;;12.80;95.60;;;;;;5022557;28;20416;-91
2022/10/29 05:29:29;;;;;;;48.27;20.90;;;12.80;95.70;;;;;;5022958;28;20217;-91
2022/10/29 05:31:54;;;;;;;55.00;21.03;;;12.70;95.70;;;;;;5022380;28;20682;-91
2022/10/29 05:34:20;;;;;;;53.93;22.87;;;12.70;95.80;;;;;;5023336;28;20199;-91
2022/10/29 05:36:46;;;;;;;62.53;22.53;;;12.70;95.80;;;;;;5023002;28;20180;-91
2022/10/29 05:39:11;;;;;;;69.73;23.27;;;12.60;95.80;;;;;;5021994;28;20187;-91
2022/10/29 05:41:37;;;;;;;70.30;22.83;;;12.60;95.90;;;;;;5019203;28;20204;-90
2022/10/29 05:44:02;;;;;;;99.27;24.17;;;12.60;96.00;;;;;;5019989;28;20549;-91
2022/10/29 05:46:28;;;;;;;72.30;25.13;;;12.70;96.00;;;;;;5020393;28;20647;-91
2022/10/29 05:48:53;;;;;;;67.93;25.53;;;12.70;96.00;;;;;;5021271;28;20530;-91
2022/10/29 05:51:19;;;;;;;76.80;24.60;;;12.70;96.10;;;;;;5021795;28;20213;-90
2022/10/29 05:53:46;;;;;;;70.90;26.23;;;12.70;96.10;;;;;;5021515;28;20184;-91
2022/10/29 05:56:12;;;;;;;83.30;27.13;;;12.70;96.10;;;;;;5021352;28;20181;-91
2022/10/29 05:58:37;;;;;;;60.57;26.10;;;12.70;96.10;;;;;;5021153;28;20607;-90
2022/10/29 06:01:07;;;;;;;77.97;27.17;;;12.70;96.10;;;;;;5019742;28;20298;-90
2022/10/29 06:03:33;;;;;;;85.53;26.73;;;12.70;96.20;;;;;;5020225;28;20188;-91
2022/10/29 06:05:58;;;;;;;82.93;28.43;;;12.70;96.20;;;;;;5038671;28;20173;-91
2022/10/29 06:08:24;;;;;;;89.67;30.73;;;12.70;96.20;;;;;;5021154;28;20177;-91
2022/10/29 06:10:50;;;;;;;98.10;27.00;;;12.80;96.20;;;;;;5020269;28;20649;-91
2022/10/29 06:13:17;;;;;;;93.43;27.23;;;12.70;96.20;;;;;;5021244;28;20184;-91
2022/10/29 06:15:44;;;;;;;80.30;27.57;;;12.80;96.30;;;;;;5020729;28;20207;-90
2022/10/29 06:18:09;;;;;;;77.93;29.70;;;12.80;96.30;;;;;;5020572;28;20268;-90
2022/10/29 06:20:37;;;;;;;77.53;28.53;;;12.80;96.30;;;;;;5020032;28;20204;-91
2022/10/29 06:23:02;;;;;;;85.00;30.00;;;12.80;96.30;;;;;;5019579;28;20761;-91
2022/10/29 06:25:28;;;;;;;90.83;29.67;;;12.80;96.30;;;;;;5021281;28;20204;-91
2022/10/29 06:28:01;;;;;;;73.37;28.83;;;12.80;96.40;;;;;;5021305;28;20165;-91
2022/10/29 06:30:28;;;;;;;75.10;30.93;;;12.80;96.40;;;;;;5020474;28;20596;-91
2022/10/29 06:32:54;;;;;;;62.07;29.30;;;12.80;96.40;;;;;;5021686;28;20216;-91
2022/10/29 06:35:20;;;;;;;63.90;29.63;;;12.90;96.40;;;;;;5021138;28;20188;-91
2022/10/29 06:37:45;;;;;;;69.33;30.73;;;12.90;96.40;;;;;;5021601;28;20242;-91
2022/10/29 06:40:11;;;;;;;71.17;29.83;;;12.90;96.40;;;;;;5021762;28;20196;-91
2022/10/29 06:42:36;;;;;;;61.83;29.20;;;12.90;96.40;;;;;;5020556;28;20218;-91
2022/10/29 06:45:02;;;;;;;72.23;30.90;;;12.90;96.40;;;;;;5020908;28;20268;-91
2022/10/29 06:47:28;;;;;;;60.07;28.23;;;12.90;96.40;;;;;;5021950;28;20213;-91
2022/10/29 06:49:53;;;;;;;62.90;28.40;;;13.00;96.40;;;;;;5037950;28;20199;-91
2022/10/29 06:52:19;;;;;;;60.93;27.80;;;13.00;96.40;;;;;;5020211;28;20204;-91
2022/10/29 06:54:44;;;;;;;59.23;27.83;;;13.00;96.40;;;;;;5021349;28;20186;-91
2022/10/29 06:57:10;;;;;;;62.97;29.37;;;13.00;96.40;;;;;;5020366;28;20180;-91
2022/10/29 06:59:35;;;;;;;68.83;28.73;;;13.00;96.40;;;;;;5021364;28;20181;-91
2022/10/29 07:02:01;;;;;;;66.17;28.93;;;13.00;96.40;;;;;;5018998;28;20204;-91
2022/10/29 07:04:27;;;;;;;62.13;29.30;;;13.00;96.40;;;;;;5019588;28;20302;-91
2022/10/29 07:06:52;;;;;;;65.33;30.47;;;13.00;96.40;;;;;;5019716;28;20211;-91
2022/10/29 07:09:18;;;;;;;64.40;31.13;;;13.00;96.40;;;;;;5019568;28;20169;-91
2022/10/29 07:11:43;;;;;;;61.57;29.90;;;13.00;96.40;;;;;;5019533;28;20236;-91
2022/10/29 07:14:09;;;;;;;60.00;29.87;;;13.00;96.40;;;;;;5019299;28;20621;-91
2022/10/29 07:16:35;;;;;;;72.67;29.93;;;13.10;96.40;;;;;;5018351;28;20556;-91
2022/10/29 07:19:02;;;;;;;63.83;29.97;;;13.10;96.40;;;;;;5018307;28;20187;-88
2022/10/29 07:21:27;;;;;;;66.17;30.93;;;13.20;96.40;;;;;;5016538;28;20258;-89
2022/10/29 07:23:53;;;;;;;70.67;29.97;;;13.20;96.40;;;;;;5016480;28;20573;-89
2022/10/29 07:26:18;;;;;;;59.03;30.00;;;13.20;96.40;;;;;;5016449;28;20180;-88
2022/10/29 07:28:44;;;;;;;62.63;30.10;;;13.20;96.40;;;;;;5016917;28;20275;-89
2022/10/29 07:31:09;;;;;;;54.20;28.30;;;13.20;96.30;;;;;;5034426;28;20200;-90
2022/10/29 07:33:35;;;;;;;62.57;28.00;;;13.20;96.30;;;;;;5036373;28;20192;-91
2022/10/29 07:36:00;;;;;;;60.50;28.17;;;13.20;96.30;;;;;;5017353;28;20165;-91
2022/10/29 07:38:26;;;;;;;62.83;29.20;;;13.20;96.30;;;;;;5018353;28;20325;-90
2022/10/29 07:40:52;;;;;;;58.40;29.67;;;13.30;96.30;;;;;;5016776;28;20181;-91
2022/10/29 07:43:19;;;;;;;67.83;29.03;;;13.30;96.30;;;;;;5017143;28;20208;-91
2022/10/29 07:45:48;;;;;;;72.40;30.60;;;13.30;96.30;;;;;;5016984;28;20173;-90
2022/10/29 07:48:14;;;;;;;56.00;27.70;;;13.30;96.30;;;;;;5034237;28;20176;-91
2022/10/29 07:50:40;;;;;;;59.60;28.70;;;13.40;96.30;;;;;;5016436;28;20267;-90
2022/10/29 07:53:07;;;;;;;63.77;31.17;;;13.30;96.10;;;;;;5033630;28;20200;-90
2022/10/29 07:55:32;;;;;;;78.93;30.43;;;13.30;96.10;;;;;;5016228;28;20181;-90
2022/10/29 07:58:04;;;;;;;65.67;32.87;;;13.30;96.10;;;;;;5016115;28;20177;-90
2022/10/29 08:00:31;;;;;;;60.57;29.03;;;13.30;96.10;;;;;;5016033;28;20209;-90
2022/10/29 08:02:57;;;;;;;69.10;33.23;;;13.30;96.00;;;;;;5015203;28;20208;-90
2022/10/29 08:05:27;;;;;;;75.30;32.37;;;13.30;96.00;;;;;;5033972;28;20165;-90
2022/10/29 08:07:54;;;;;;;71.80;33.43;;;13.30;96.00;;;;;;5017557;28;20181;-90
2022/10/29 08:10:20;;;;;;;70.90;33.30;;;13.30;96.00;;;;;;5016220;28;20669;-89
2022/10/29 08:12:53;;;;;;;68.63;34.10;;;13.30;96.00;;;;;;5016181;28;20200;-89
2022/10/29 08:15:19;;;;;;;65.93;33.80;;;13.40;96.00;;;;;;5015967;28;20554;-90
2022/10/29 08:17:46;;;;;;;75.67;33.60;;;13.30;96.00;;;;;;5015706;28;20191;-90
2022/10/29 08:20:12;;;;;;;66.27;32.13;;;13.30;95.90;;;;;;5015781;28;20180;-90
2022/10/29 08:22:38;;;;;;;73.90;34.73;;;13.40;95.90;;;;;;5016593;28;20219;-91
2022/10/29 08:25:04;;;;;;;81.90;37.50;;;13.50;96.00;;;;;;5016211;28;20413;-91
2022/10/29 08:27:29;;;;;;;66.87;31.83;;;13.60;96.00;;;;;;5017561;28;20187;-90
2022/10/29 08:29:55;;;;;;;64.53;35.50;;;13.70;96.00;;;;;;5016735;28;20267;-91
2022/10/29 08:32:20;;;;;;;74.80;35.13;;;13.80;96.00;;;;;;5033738;28;20204;-90
2022/10/29 08:34:46;;;;;;;87.87;41.03;;;13.70;95.90;;;;;;5015880;28;20203;-90
2022/10/29 08:37:11;;;;;;;88.53;40.57;;;13.80;95.90;;;;;;5015784;28;20221;-90
2022/10/29 08:39:37;;;;;;;93.65;41.33;;;13.80;95.90;;;;;;5033659;28;20176;-90
2022/10/29 08:42:27;;;;;;;84.63;41.37;;;13.80;95.90;;;;;;5015442;28;20265;-91
2022/10/29 08:45:04;;;;;;;84.80;38.10;;;13.80;95.80;;;;;;5015677;28;20176;-91
2022/10/29 08:47:42;;;;;;;86.70;40.37;;;13.80;95.80;;;;;;5015839;28;20180;-91
2022/10/29 08:50:29;;;;;;;95.33;40.03;;;13.90;95.70;;;;;;5017654;28;20176;-92
2022/10/29 08:52:55;;;;;;;73.07;38.50;;;13.90;95.70;;;;;;5015649;28;20300;-91
2022/10/29 08:55:35;;;;;;;83.37;39.53;;;14.10;95.70;;;;;;5015464;28;20185;-91
2022/10/29 08:58:29;;;;;;;73.63;38.23;;;14.20;95.60;;;;;;5016728;28;20211;-90
2022/10/29 09:00:56;;;;;;;87.87;41.97;;;14.20;95.30;;;;;;5032944;28;20177;-91
2022/10/29 09:03:24;;;;;;;79.83;38.27;;;14.20;95.30;;;;;;5015569;28;20255;-91
2022/10/29 09:06:06;;;;;;;77.67;37.93;;;14.20;95.10;;;;;;5016246;28;20231;-90
2022/10/29 09:08:43;;;;;;;91.20;38.63;;;14.30;95.10;;;;;;5015495;28;20587;-91
2022/10/29 09:11:31;;;;;;;84.20;39.17;;;14.50;95.10;;;;;;5015142;28;20238;-90
2022/10/29 09:14:27;;;;;;;93.90;39.53;;;14.50;94.70;;;;;;5015774;28;20172;-91
2022/10/29 09:17:14;;;;;;;86.30;41.58;;;14.50;94.50;;;;;;5020225;28;20176;-91
2022/10/29 09:20:01;;;;;;;84.32;39.33;;;14.70;94.60;;;;;;5019165;28;20235;-90
2022/10/29 09:22:57;;;;;;;82.45;37.97;;;14.80;94.40;;;;;;5018793;28;20215;-89
2022/10/29 09:25:29;;;;;;;80.27;37.97;;;14.80;93.60;;;;;;5019962;28;20168;-89
2022/10/29 09:28:19;;;;;;;75.43;35.95;;;14.80;93.60;;;;;;5037508;28;20619;-89
2022/10/29 09:31:10;;;;;;;74.50;35.33;;;15.10;93.60;;;;;;5022770;28;20266;-91
2022/10/29 09:33:37;;;;;;;81.53;35.65;;;15.00;92.60;;;;;;5025027;28;20635;-91
2022/10/29 09:36:13;;;;;;;78.75;35.88;;;14.80;92.70;;;;;;5023295;28;20176;-91
2022/10/29 09:38:55;;;;;;;77.20;36.33;;;15.00;92.80;;;;;;5020978;28;20594;-88
2022/10/29 09:41:24;;;;;;;72.47;32.03;;;15.00;92.30;;;;;;5019993;28;20203;-89
2022/10/29 09:44:00;;;;;;;70.82;32.08;;;15.00;92.20;;;;;;5019878;28;20184;-89
2022/10/29 09:46:37;;;;;;;73.18;34.28;;;15.00;92.20;;;;;;5020069;28;20245;-91
2022/10/29 09:49:27;;;;;;;69.50;33.00;;;15.00;92.10;;;;;;5036763;28;20165;-90
2022/10/29 09:51:56;;;;;;;65.38;33.58;;;15.10;91.90;;;;;;5036846;28;20200;-90
2022/10/29 09:54:23;;;;;;;70.53;35.85;;;15.10;91.70;;;;;;5019816;28;20191;-90
2022/10/29 09:56:49;;;;;;;66.85;31.88;;;15.20;91.60;;;;;;5021306;28;20181;-90
2022/10/29 09:59:26;;;;;;;63.22;30.38;;;15.10;91.40;;;;;;5019163;28;20227;-90
2022/10/29 10:01:52;;;;;;;59.95;29.15;;;15.20;91.70;;;;;;5019326;28;20208;-89
2022/10/29 10:04:36;;;;;;;63.33;30.05;;;15.20;91.40;;;;;;5037217;28;20603;-89
2022/10/29 10:07:10;;;;;;;62.35;28.83;;;15.10;91.50;;;;;;5019933;28;20236;-90
2022/10/29 10:09:56;;;;;;;62.22;29.92;;;15.20;91.50;;;;;;5019934;28;20177;-89
2022/10/29 10:12:26;;;;;;;60.20;28.08;;;15.20;91.40;;;;;;5020095;28;20193;-90
2022/10/29 10:15:05;;;;;;;58.78;26.92;;;15.30;91.40;;;;;;5020179;28;20524;-88
2022/10/29 10:17:56;;;;;;;55.55;28.35;;;15.30;91.10;;;;;;5021217;28;20194;-88
2022/10/29 10:20:37;;;;;;;59.88;26.08;;;15.30;91.00;;;;;;5020214;28;20542;-89
2022/10/29 10:23:24;;;;;;;55.88;27.17;;;15.40;90.80;;;;;;5040129;28;20260;-90
2022/10/29 10:25:58;;;;;;;50.38;25.08;;;15.50;91.20;;;;;;5030933;28;20165;-89
2022/10/29 10:28:29;;;;;;;53.15;27.10;;;15.40;90.90;;;;;;5032433;28;20179;-89
2022/10/29 10:31:05;;;;;;;48.50;23.65;;;15.40;90.90;;;;;;5022041;28;20181;-89
2022/10/29 10:33:33;;;;;;;56.70;26.27;;;15.40;90.90;;;;;;5019457;28;20203;-90
2022/10/29 10:36:05;;;;;;;57.85;25.20;;;15.30;91.00;;;;;;5021324;28;20169;-88
2022/10/29 10:38:44;;;;;;;55.22;24.92;;;15.20;91.30;;;;;;5039100;28;20184;-88
2022/10/29 10:41:12;;;;;;;53.20;25.95;;;15.30;91.50;;;;;;5021870;28;20224;-89
2022/10/29 10:43:42;;;;;;;50.70;24.92;;;15.30;91.40;;;;;;5022093;28;20223;-89
2022/10/29 10:46:37;;;;;;;54.80;25.95;;;15.30;91.40;;;;;;5022352;28;20177;-89
2022/10/29 10:49:29;;;;;;;55.28;26.90;;;15.40;91.60;;;;;;5020622;28;20168;-89
2022/10/29 10:51:55;;;;;;;56.10;27.02;;;15.50;91.60;;;;;;5019840;28;20203;-90
2022/10/29 10:54:29;;;;;;;59.22;28.05;;;15.40;91.50;;;;;;5022368;28;20177;-89
2022/10/29 10:57:00;;;;;;;51.65;25.70;;;15.50;91.60;;;;;;5021587;28;20169;-90
2022/10/29 10:59:50;;;;;;;51.95;27.38;;;15.40;91.40;;;;;;5020515;28;20169;-89
2022/10/29 11:02:21;;;;;;;50.38;26.88;;;15.40;91.40;;;;;;5021646;28;20212;-89
2022/10/29 11:04:53;;;;;;;53.83;28.42;;;15.40;91.50;;;;;;5020640;28;20173;-89
2022/10/29 11:07:19;;;;;;;64.65;28.65;;;15.50;91.80;;;;;;5039510;28;20165;-89
2022/10/29 11:09:49;;;;;;;58.15;26.98;;;15.50;91.80;;;;;;5023116;28;20173;-88
2022/10/29 11:12:27;;;;;;;56.97;27.80;;;15.50;91.70;;;;;;5020610;28;20200;-89
2022/10/29 11:14:58;;;;;;;58.53;26.65;;;15.50;91.90;;;;;;5023455;28;20173;-88
2022/10/29 11:17:53;;;;;;;53.50;27.30;;;15.60;91.80;;;;;;5025407;28;20192;-89
2022/10/29 11:20:27;;;;;;;51.92;27.52;;;15.70;91.90;;;;;;5021654;28;20180;-89
2022/10/29 11:23:28;;;;;;;53.45;26.40;;;15.70;91.70;;;;;;5021271;28;20716;-89
2022/10/29 11:26:15;;;;;;;53.58;24.63;;;15.70;91.50;;;;;;5020653;28;20183;-89
2022/10/29 11:28:54;;;;;;;64.38;26.80;;;15.70;91.30;;;;;;5022300;28;20522;-89
2022/10/29 11:31:28;;;;;;;50.95;25.73;;;15.70;91.20;;;;;;5020594;28;20205;-90
2022/10/29 11:34:16;;;;;;;57.92;25.73;;;15.70;91.30;;;;;;5040129;28;20242;-90
2022/10/29 11:36:59;;;;;;;51.22;25.95;;;15.70;91.20;;;;;;5020452;28;20646;-90
2022/10/29 11:39:32;;;;;;;53.17;26.45;;;15.80;91.20;;;;;;5020906;28;20203;-90
2022/10/29 11:42:00;;;;;;;47.25;24.58;;;15.80;91.10;;;;;;5038062;28;20280;-89
2022/10/29 11:44:28;;;;;;;43.70;25.20;;;15.80;90.90;;;;;;5019926;28;20183;-90
2022/10/29 11:47:12;;;;;;;45.45;23.45;;;15.80;91.10;;;;;;5019388;28;20173;-89
2022/10/29 11:50:05;;;;;;;60.45;24.88;;;15.80;90.90;;;;;;5018807;28;20173;-89
2022/10/29 11:53:00;;;;;;;55.35;25.23;;;15.90;90.90;;;;;;5039260;28;20193;-89
2022/10/29 11:56:11;;;;;;;49.03;23.52;;;15.90;90.90;;;;;;5020207;28;20231;-89
2022/10/29 11:58:58;;;;;;;41.80;24.75;;;15.80;90.50;;;;;;4991550;28;20195;-90
2022/10/29 12:01:33;;;;;;;46.45;24.42;;;15.80;90.70;;;;;;5019824;28;20273;-89
2022/10/29 12:04:20;;;;;;;44.40;24.42;;;15.80;90.60;;;;;;5019678;28;20196;-89
2022/10/29 12:07:12;;;;;;;47.33;23.33;;;15.80;90.60;;;;;;5018112;28;20172;-89
2022/10/29 12:09:57;;;;;;;46.88;22.98;;;15.80;90.60;;;;;;5018616;28;20180;-89
2022/10/29 12:12:57;;;;;;;41.85;22.55;;;15.80;90.50;;;;;;5019817;28;20503;-89
2022/10/29 12:15:35;;;;;;;40.88;23.42;;;16.00;90.70;;;;;;5035877;28;20180;-90
2022/10/29 12:18:09;;;;;;;46.28;23.52;;;16.10;90.50;;;;;;5019274;28;20172;-89
2022/10/29 12:20:54;;;;;;;44.72;22.70;;;16.10;90.70;;;;;;5018101;28;20168;-89
2022/10/29 12:23:25;;;;;;;48.13;23.45;;;16.10;90.50;;;;;;5018732;28;20218;-89
2022/10/29 12:26:02;;;;;;;49.60;22.90;;;16.20;90.50;;;;;;5018854;28;20165;-90
2022/10/29 12:28:34;;;;;;;50.30;25.15;;;16.20;90.40;;;;;;5018421;28;20180;-90
2022/10/29 12:31:19;;;;;;;39.10;21.58;;;16.30;90.30;;;;;;5017202;28;20161;-91
2022/10/29 12:34:06;;;;;;;46.20;22.55;;;16.20;90.20;;;;;;5016309;28;20184;-91
2022/10/29 12:36:44;;;;;;;46.42;21.73;;;16.40;90.30;;;;;;5017644;28;20544;-91
2022/10/29 12:39:30;;;;;;;40.88;22.15;;;16.40;90.00;;;;;;5017614;28;20523;-90
2022/10/29 12:42:11;;;;;;;40.67;22.55;;;16.50;90.30;;;;;;5016967;28;20212;-90
2022/10/29 12:45:22;;;;;;;47.78;23.98;;;16.50;90.20;;;;;;5019853;28;20169;-91
2022/10/29 12:48:14;;;;;;;47.38;23.33;;;16.40;90.10;;;;;;5019895;28;20180;-91
2022/10/29 12:50:59;;;;;;;40.60;21.95;;;16.50;90.10;;;;;;5024339;28;20176;-91
2022/10/29 12:53:46;;;;;;;39.03;20.98;;;16.70;90.20;;;;;;5025551;28;20181;-90